Time;durP1;ratioP1;P1;durP2;ratioP2;P2;SDS_P1;SDS_P2;PMS_P1;PMS_P2;Temp;Humidity;BMP_temperature;BMP_pressure;BME280_temperature;BME280_humidity;BME280_pressure;Samples;Min_cycle;Max_cycle;Signal;HPM_P1;HPM_P2
2023/04/14 00:00:08;;;;;;;21.13;11.13;;;;;;;10.34;63.75;98560.06;5110891;28;20386;-78
2023/04/14 00:02:34;;;;;;;20.02;12.25;;;;;;;10.69;63.36;98562.25;5111749;28;20027;-79
2023/04/14 00:05:00;;;;;;;17.05;9.93;;;;;;;10.86;63.25;98554.69;5091725;28;20040;-79
2023/04/14 00:07:25;;;;;;;14.98;9.57;;;;;;;10.73;63.46;98560.34;5098791;28;20081;-79
2023/04/14 00:09:51;;;;;;;27.60;9.68;;;;;;;10.44;64.26;98564.34;5106730;28;20039;-78
2023/04/14 00:12:16;;;;;;;9.90;7.72;;;;;;;10.88;62.63;98566.34;5111476;28;20116;-79
2023/04/14 00:14:42;;;;;;;14.55;7.85;;;;;;;10.49;63.37;98564.09;5111605;28;20088;-78
2023/04/14 00:17:08;;;;;;;11.45;7.80;;;;;;;10.51;63.30;98561.75;5111564;28;20076;-78
2023/04/14 00:19:33;;;;;;;12.50;8.13;;;;;;;10.57;63.56;98553.91;5092591;28;20445;-79
2023/04/14 00:21:59;;;;;;;10.32;7.50;;;;;;;10.38;64.29;98564.56;5107081;28;20402;-79
2023/04/14 00:24:25;;;;;;;12.45;8.35;;;;;;;9.80;66.60;98551.72;5091222;28;20453;-78
2023/04/14 00:26:50;;;;;;;13.98;7.85;;;;;;;10.02;66.59;98557.94;5097545;28;20432;-79
2023/04/14 00:29:16;;;;;;;11.77;6.78;;;;;;;10.22;65.88;98556.13;5110709;28;20050;-78
2023/04/14 00:31:41;;;;;;;11.90;7.38;;;;;;;10.42;64.98;98573.09;5111484;28;20028;-79
2023/04/14 00:34:07;;;;;;;13.95;7.88;;;;;;;10.26;65.07;98573.00;5110452;28;20084;-77
2023/04/14 00:36:32;;;;;;;14.23;8.50;;;;;;;9.65;65.25;98575.63;5095711;28;20111;-79
2023/04/14 00:38:59;;;;;;;14.80;7.72;;;;;;;10.02;64.61;98571.13;5104024;28;20028;-79
2023/04/14 00:41:25;;;;;;;13.68;8.13;;;;;;;10.24;63.75;98561.38;5093024;28;20019;-79
2023/04/14 00:43:53;;;;;;;12.77;7.68;;;;;;;10.52;62.15;98560.59;5110889;28;20047;-79
2023/04/14 00:46:20;;;;;;;15.60;9.00;;;;;;;10.51;61.76;98554.19;5111281;28;20027;-79
2023/04/14 00:48:46;;;;;;;15.32;9.05;;;;;;;10.54;62.01;98575.00;5110578;28;20027;-79
2023/04/14 00:51:11;;;;;;;20.65;11.23;;;;;;;10.45;61.76;98575.19;5095241;28;20084;-78
2023/04/14 00:53:38;;;;;;;20.15;10.98;;;;;;;10.29;62.64;98572.28;5114127;28;20103;-79
2023/04/14 00:56:04;;;;;;;18.42;9.43;;;;;;;9.65;64.99;98570.03;5094924;28;20108;-79
2023/04/14 00:58:30;;;;;;;21.88;10.68;;;;;;;9.80;65.30;98562.88;5096508;28;20468;-79
2023/04/14 01:00:57;;;;;;;19.92;9.52;;;;;;;10.17;63.85;98564.78;5114844;28;20027;-79
2023/04/14 01:03:23;;;;;;;20.40;9.95;;;;;;;10.24;63.28;98566.97;5115134;28;20212;-79
2023/04/14 01:05:49;;;;;;;20.27;9.77;;;;;;;10.48;62.33;98554.88;5091924;28;20495;-79
2023/04/14 01:08:16;;;;;;;27.08;11.88;;;;;;;10.50;62.62;98554.53;5090599;28;20417;-79
2023/04/14 01:10:52;;;;;;;16.65;8.25;;;;;;;10.62;62.28;98564.88;5113852;28;20512;-79
2023/04/14 01:13:40;;;;;;;18.35;9.48;;;;;;;10.78;61.58;98570.47;5096527;28;20035;-79
2023/04/14 01:16:16;;;;;;;15.25;8.90;;;;;;;10.74;62.04;98581.56;5114969;28;20027;-79
2023/04/14 01:19:05;;;;;;;23.02;9.70;;;;;;;10.27;63.16;98587.81;5095986;28;20020;-78
2023/04/14 01:21:36;;;;;;;17.50;9.48;;;;;;;10.11;65.20;98591.31;5101521;28;20495;-79
2023/04/14 01:24:11;;;;;;;17.13;10.32;;;;;;;10.29;64.47;98586.25;5094261;28;20020;-79
2023/04/14 01:26:38;;;;;;;19.35;9.32;;;;;;;10.49;64.08;98572.50;5095264;28;20028;-79
2023/04/14 01:29:15;;;;;;;14.55;9.90;;;;;;;10.69;63.18;98573.44;5113258;28;20026;-79
2023/04/14 01:32:00;;;;;;;22.73;11.88;;;;;;;10.56;63.12;98571.88;5096398;28;20032;-79
2023/04/14 01:34:32;;;;;;;24.23;13.15;;;;;;;10.50;62.89;98579.69;5114314;28;20024;-79
2023/04/14 01:37:05;;;;;;;22.52;13.27;;;;;;;10.13;64.07;98579.81;5110644;28;20481;-79
2023/04/14 01:39:35;;;;;;;25.98;13.75;;;;;;;10.31;63.32;98569.16;5114057;28;20059;-79
2023/04/14 01:42:05;;;;;;;20.27;12.77;;;;;;;10.10;64.22;98567.34;5114404;28;20027;-79
2023/04/14 01:44:32;;;;;;;23.20;12.55;;;;;;;10.21;64.53;98576.06;5097513;28;20067;-79
2023/04/14 01:47:04;;;;;;;23.05;12.05;;;;;;;10.27;64.61;98557.06;5094027;28;20095;-79
2023/04/14 01:49:32;;;;;;;21.13;13.45;;;;;;;10.42;63.68;98575.91;5095549;28;20102;-79
2023/04/14 01:51:59;;;;;;;18.48;12.63;;;;;;;10.34;63.76;98565.63;5100815;28;20124;-79
2023/04/14 01:54:26;;;;;;;21.40;11.05;;;;;;;10.24;64.68;98570.56;5114066;28;20024;-79
2023/04/14 01:56:53;;;;;;;27.05;13.13;;;;;;;10.38;64.07;98567.38;5114196;28;20020;-79
2023/04/14 01:59:21;;;;;;;18.50;11.73;;;;;;;10.42;64.76;98541.53;5113266;28;20406;-79
2023/04/14 02:01:49;;;;;;;20.23;11.00;;;;;;;10.39;64.94;98548.63;5100486;28;20036;-79
2023/04/14 02:04:20;;;;;;;16.83;9.82;;;;;;;10.61;63.99;98552.03;5104577;28;20019;-79
2023/04/14 02:06:48;;;;;;;13.65;8.43;;;;;;;10.68;64.18;98555.03;5095157;28;20030;-78
2023/04/14 02:09:14;;;;;;;16.08;10.05;;;;;;;10.83;63.79;98559.03;5106962;28;20024;-79
2023/04/14 02:11:42;;;;;;;16.63;9.73;;;;;;;10.58;64.14;98561.13;5093460;28;20048;-79
2023/04/14 02:14:09;;;;;;;19.10;12.57;;;;;;;9.86;65.42;98577.41;5092065;28;20031;-79
2023/04/14 02:16:37;;;;;;;19.95;12.68;;;;;;;9.77;65.20;98574.75;5093467;28;20024;-79
2023/04/14 02:19:04;;;;;;;16.17;10.80;;;;;;;9.82;65.19;98577.31;5101754;28;20023;-79
2023/04/14 02:21:33;;;;;;;18.83;12.43;;;;;;;9.19;67.09;98580.50;5110860;28;20023;-79
2023/04/14 02:23:58;;;;;;;18.45;12.23;;;;;;;9.19;67.35;98574.91;5093126;28;20027;-79
2023/04/14 02:26:28;;;;;;;15.13;11.32;;;;;;;8.41;71.10;98567.03;5095002;28;20024;-79
2023/04/14 02:29:08;;;;;;;16.92;11.20;;;;;;;8.76;70.03;98577.06;5113216;28;20451;-79
2023/04/14 02:31:37;;;;;;;19.10;10.63;;;;;;;8.34;71.65;98567.59;5113747;28;20032;-79
2023/04/14 02:34:07;;;;;;;16.45;11.82;;;;;;;8.37;71.69;98566.09;5098069;28;20032;-79
2023/04/14 02:36:43;;;;;;;15.68;11.30;;;;;;;8.67;71.48;98564.00;5104496;28;20058;-78
2023/04/14 02:39:16;;;;;;;13.63;10.05;;;;;;;8.83;69.63;98557.78;5109197;28;20044;-79
2023/04/14 02:41:45;;;;;;;16.83;9.50;;;;;;;9.16;69.26;98567.22;5113251;28;20047;-79
2023/04/14 02:44:24;;;;;;;15.98;10.48;;;;;;;9.08;68.76;98569.78;5112977;28;20034;-79
2023/04/14 02:47:05;;;;;;;16.08;10.95;;;;;;;8.74;69.82;98573.78;5113156;28;20023;-79
2023/04/14 02:49:43;;;;;;;11.35;8.98;;;;;;;8.75;70.28;98570.66;5093792;28;20445;-79
2023/04/14 02:52:10;;;;;;;13.30;9.40;;;;;;;9.05;69.17;98562.13;5097037;28;20034;-79
2023/04/14 02:54:40;;;;;;;13.10;8.82;;;;;;;9.20;69.21;98573.75;5091386;28;20513;-79
2023/04/14 02:57:06;;;;;;;15.77;9.40;;;;;;;9.02;68.80;98573.16;5092820;28;20387;-79
2023/04/14 02:59:32;;;;;;;14.93;9.50;;;;;;;8.98;69.31;98571.03;5093615;28;20032;-79
2023/04/14 03:02:01;;;;;;;16.33;10.60;;;;;;;9.16;68.79;98575.59;5092543;28;20034;-79
2023/04/14 03:04:29;;;;;;;12.60;9.27;;;;;;;9.24;67.81;98581.09;5092402;28;20032;-79
2023/04/14 03:06:57;;;;;;;16.95;8.02;;;;;;;8.90;69.50;98574.75;5095157;28;20046;-79
2023/04/14 03:09:24;;;;;;;16.13;9.07;;;;;;;8.90;69.33;98580.34;5092673;28;20063;-79
2023/04/14 03:11:51;;;;;;;11.65;8.45;;;;;;;9.09;69.41;98557.47;5112385;28;20052;-79
2023/04/14 03:14:18;;;;;;;12.52;7.18;;;;;;;9.17;68.09;98589.19;5112113;28;20036;-79
2023/04/14 03:16:45;;;;;;;16.05;9.43;;;;;;;9.03;68.35;98567.22;5094174;28;20023;-79
2023/04/14 03:19:12;;;;;;;15.65;8.70;;;;;;;9.17;68.54;98566.06;5107623;28;20031;-78
2023/04/14 03:21:38;;;;;;;13.60;8.35;;;;;;;9.11;68.22;98565.47;5112506;28;20027;-79
2023/04/14 03:24:05;;;;;;;16.73;9.48;;;;;;;9.22;67.90;98563.84;5092988;28;20088;-79
2023/04/14 03:26:33;;;;;;;14.27;9.48;;;;;;;9.19;68.19;98561.75;5112092;28;20058;-79
2023/04/14 03:29:02;;;;;;;13.10;8.40;;;;;;;9.07;69.46;98565.38;5111657;28;20027;-79
2023/04/14 03:31:35;;;;;;;17.08;7.90;;;;;;;9.24;68.87;98572.72;5093994;28;20027;-79
2023/04/14 03:34:03;;;;;;;14.25;9.20;;;;;;;9.33;68.50;98572.59;5101203;28;20027;-79
2023/04/14 03:36:30;;;;;;;18.65;8.02;;;;;;;9.51;67.85;98583.50;5111464;28;20045;-79
2023/04/14 03:39:00;;;;;;;15.45;8.45;;;;;;;9.61;67.24;98583.03;5111877;28;20024;-79
2023/04/14 03:41:26;;;;;;;14.40;7.13;;;;;;;9.67;67.57;98583.63;5095119;28;20490;-79
2023/04/14 03:43:55;;;;;;;20.20;8.70;;;;;;;9.48;67.21;98585.03;5091807;28;20024;-79
2023/04/14 03:46:27;;;;;;;20.77;10.18;;;;;;;9.19;67.61;98588.88;5102668;28;20370;-79
2023/04/14 03:48:54;;;;;;;24.15;9.95;;;;;;;9.24;67.91;98595.03;5103857;28;20494;-75
2023/04/14 03:51:25;;;;;;;13.95;8.85;;;;;;;8.95;68.69;98591.25;5106503;28;20531;-79
2023/04/14 03:53:54;;;;;;;19.45;11.65;;;;;;;8.83;69.88;98596.81;5093794;28;20468;-79
2023/04/14 03:56:21;;;;;;;16.35;9.63;;;;;;;8.76;70.85;98605.75;5081263;28;20038;-79
2023/04/14 03:58:51;;;;;;;21.98;11.63;;;;;;;8.87;69.63;98606.13;5092584;28;20032;-79
2023/04/14 04:01:24;;;;;;;21.48;10.88;;;;;;;8.75;69.62;98598.53;5098251;28;20035;-80
2023/04/14 04:03:52;;;;;;;19.40;10.90;;;;;;;9.07;69.45;98603.59;5090264;28;20031;-79
2023/04/14 04:06:18;;;;;;;15.20;9.85;;;;;;;9.04;68.94;98595.94;5099525;28;20106;-79
2023/04/14 04:08:46;;;;;;;26.27;16.27;;;;;;;8.37;71.31;98611.47;5092216;28;20114;-79
2023/04/14 04:11:17;;;;;;;68.03;40.42;;;;;;;8.49;71.67;98599.59;5102247;28;20059;-79
2023/04/14 04:13:45;;;;;;;38.38;21.08;;;;;;;8.79;70.62;98598.66;5090818;28;20040;-79
2023/04/14 04:16:12;;;;;;;39.50;20.73;;;;;;;9.07;69.83;98603.59;5106924;28;20034;-79
2023/04/14 04:18:39;;;;;;;44.78;23.98;;;;;;;8.79;70.87;98599.47;5100863;28;20103;-79
2023/04/14 04:21:05;;;;;;;43.67;22.75;;;;;;;8.98;70.06;98607.28;5100415;28;20359;-79
2023/04/14 04:23:33;;;;;;;42.45;19.70;;;;;;;8.74;71.19;98608.06;5093031;28;20023;-79
2023/04/14 04:25:59;;;;;;;33.10;15.77;;;;;;;8.53;71.71;98608.13;5092541;28;20417;-79
2023/04/14 04:28:26;;;;;;;16.70;9.40;;;;;;;8.31;74.56;98604.50;5110855;28;20032;-79
2023/04/14 04:30:53;;;;;;;14.85;10.25;;;;;;;8.93;72.09;98609.50;5111350;28;20085;-72
2023/04/14 04:33:20;;;;;;;15.52;8.57;;;;;;;9.33;70.06;98614.44;5095155;28;20081;-75
2023/04/14 04:35:46;;;;;;;20.88;8.90;;;;;;;9.39;69.66;98610.25;5092840;28;20453;-71
2023/04/14 04:38:12;;;;;;;11.52;7.43;;;;;;;9.37;70.42;98603.41;5092719;28;20509;-72
2023/04/14 04:40:38;;;;;;;21.70;7.85;;;;;;;9.42;70.96;98603.16;5111722;28;20028;-73
2023/04/14 04:43:04;;;;;;;17.33;8.23;;;;;;;9.58;69.68;98597.72;5079368;28;20039;-73
2023/04/14 04:45:41;;;;;;;12.45;7.57;;;;;;;9.82;68.61;98584.88;5092846;28;20457;-72
2023/04/14 04:48:06;;;;;;;11.10;7.40;;;;;;;9.93;68.62;98591.63;5104745;28;20039;-74
2023/04/14 04:50:32;;;;;;;48.38;35.47;;;;;;;9.95;68.31;98586.47;5099934;28;20486;-76
2023/04/14 04:52:57;;;;;;;32.97;22.52;;;;;;;9.83;68.71;98586.50;5088435;28;20028;-75
2023/04/14 04:55:23;;;;;;;13.02;9.23;;;;;;;9.89;68.71;98587.09;5090331;28;20032;-73
2023/04/14 04:57:48;;;;;;;9.60;7.45;;;;;;;9.09;72.21;98596.53;5079239;28;20032;-74
2023/04/14 05:00:14;;;;;;;23.67;8.20;;;;;;;9.31;71.99;98583.28;5072055;28;20039;-74
2023/04/14 05:02:40;;;;;;;21.33;8.20;;;;;;;9.02;72.96;98576.75;5101390;28;20039;-75
2023/04/14 05:05:07;;;;;;;13.77;7.88;;;;;;;9.28;72.42;98575.59;5086060;28;20166;-73
2023/04/14 05:07:33;;;;;;;18.98;7.97;;;;;;;9.41;72.11;98576.44;5096024;28;20028;-75
2023/04/14 05:09:58;;;;;;;11.82;8.10;;;;;;;9.71;70.57;98570.56;5085837;28;20599;-77
2023/04/14 05:12:24;;;;;;;11.52;7.60;;;;;;;9.91;70.08;98579.97;5105575;28;20056;-76
2023/04/14 05:14:49;;;;;;;12.05;8.18;;;;;;;9.77;69.62;98580.34;5089441;28;20028;-78
2023/04/14 05:17:15;;;;;;;11.88;8.38;;;;;;;10.00;68.98;98581.81;5106813;28;20073;-77
2023/04/14 05:19:40;;;;;;;10.77;7.55;;;;;;;10.16;69.01;98588.31;5106241;28;20386;-75
2023/04/14 05:22:06;;;;;;;11.10;8.48;;;;;;;10.34;68.17;98590.78;5108351;28;20467;-78
2023/04/14 05:24:31;;;;;;;15.88;8.10;;;;;;;9.88;69.40;98594.63;5108321;28;20024;-75
2023/04/14 05:26:57;;;;;;;16.48;9.43;;;;;;;10.14;69.65;98604.63;5105865;28;20032;-75
2023/04/14 05:29:22;;;;;;;10.48;8.52;;;;;;;9.68;71.22;98600.03;5083222;28;20035;-74
2023/04/14 05:31:47;;;;;;;14.35;7.65;;;;;;;9.44;73.25;98600.84;5091722;28;20028;-75
2023/04/14 05:34:13;;;;;;;19.95;8.80;;;;;;;9.39;73.43;98592.72;5081382;28;20089;-73
2023/04/14 05:36:39;;;;;;;19.17;9.90;;;;;;;9.77;71.78;98580.34;5106616;27;20081;-72
2023/04/14 05:39:05;;;;;;;13.43;8.82;;;;;;;10.16;70.69;98584.69;5108114;28;20470;-76
2023/04/14 05:41:30;;;;;;;10.63;7.40;;;;;;;10.19;70.34;98582.00;5109337;28;20080;-74
2023/04/14 05:43:56;;;;;;;17.33;7.95;;;;;;;10.01;70.79;98581.47;5093320;28;20539;-71
2023/04/14 05:46:21;;;;;;;12.15;8.02;;;;;;;9.72;71.93;98575.03;5110874;28;20076;-72
2023/04/14 05:48:46;;;;;;;14.27;8.52;;;;;;;9.64;71.87;98575.94;5111752;28;20032;-72
2023/04/14 05:51:12;;;;;;;16.15;8.40;;;;;;;9.71;72.21;98572.56;5098164;28;20028;-71
2023/04/14 05:53:37;;;;;;;17.45;8.70;;;;;;;9.67;73.18;98575.25;5072932;28;20039;-72
2023/04/14 05:56:03;;;;;;;22.83;9.20;;;;;;;9.48;74.72;98576.66;5097112;28;20039;-72
2023/04/14 05:58:28;;;;;;;27.58;8.32;;;;;;;9.69;73.34;98584.91;5091013;28;20019;-69
2023/04/14 06:00:54;;;;;;;28.90;15.88;;;;;;;9.80;71.87;98571.25;5111420;28;20035;-70
2023/04/14 06:03:19;;;;;;;18.25;10.48;;;;;;;10.02;70.39;98563.53;5091620;28;20012;-70
2023/04/14 06:05:47;;;;;;;14.32;7.97;;;;;;;10.29;68.71;98565.91;5086510;28;20556;-72
2023/04/14 06:08:12;;;;;;;18.35;8.68;;;;;;;10.03;69.84;98559.56;5109149;28;20020;-73
2023/04/14 06:10:38;;;;;;;13.68;8.43;;;;;;;10.46;68.12;98557.22;5099643;28;20012;-71
2023/04/14 06:13:03;;;;;;;16.50;9.75;;;;;;;10.69;68.51;98556.66;5091312;28;20433;-72
2023/04/14 06:15:30;;;;;;;11.80;8.32;;;;;;;10.71;67.42;98564.69;5106942;27;20020;-70
2023/04/14 06:17:55;;;;;;;14.18;9.77;;;;;;;10.51;69.37;98575.72;5093392;27;20056;-70
2023/04/14 06:20:21;;;;;;;16.42;9.05;;;;;;;10.77;68.59;98552.88;5087430;28;20763;-71
2023/04/14 06:22:47;;;;;;;13.90;9.02;;;;;;;10.74;67.70;98558.38;5092902;28;20035;-72
2023/04/14 06:25:12;;;;;;;16.38;8.43;;;;;;;10.78;67.17;98559.28;5113140;28;20095;-74
2023/04/14 06:27:37;;;;;;;17.08;9.90;;;;;;;11.15;66.91;98566.63;5107773;28;20059;-71
2023/04/14 06:30:05;;;;;;;16.42;8.85;;;;;;;11.37;66.24;98563.19;5100329;27;20532;-75
2023/04/14 06:32:31;;;;;;;18.02;10.40;;;;;;;11.64;65.36;98551.38;5100710;28;20044;-77
2023/04/14 06:34:56;;;;;;;13.75;9.52;;;;;;;11.57;65.72;98565.25;5100980;28;20055;-72
2023/04/14 06:37:22;;;;;;;18.88;9.13;;;;;;;11.59;66.08;98558.09;5094881;28;20016;-70
2023/04/14 06:39:47;;;;;;;17.40;8.73;;;;;;;11.87;65.16;98547.91;5085717;28;20040;-73
2023/04/14 06:42:12;;;;;;;14.05;9.07;;;;;;;12.13;64.57;98555.72;5108039;28;20575;-79
2023/04/14 06:44:39;;;;;;;15.90;8.38;;;;;;;12.17;65.19;98542.56;5094065;28;20027;-75
2023/04/14 06:47:04;;;;;;;19.30;8.38;;;;;;;12.22;64.91;98552.69;5088435;28;20123;-78
2023/04/14 06:49:30;;;;;;;12.93;8.88;;;;;;;12.49;64.29;98544.44;5077671;28;20118;-75
2023/04/14 06:51:55;;;;;;;11.05;8.15;;;;;;;12.83;63.26;98541.84;5100585;28;20034;-76
2023/04/14 06:54:21;;;;;;;15.68;7.82;;;;;;;13.05;62.60;98520.59;5111784;28;20027;-75
2023/04/14 06:56:46;;;;;;;15.75;8.43;;;;;;;13.06;61.40;98524.19;5106426;28;20019;-82
2023/04/14 06:59:12;;;;;;;9.93;6.25;;;;;;;12.78;60.43;98514.88;5105702;28;20114;-76
2023/04/14 07:01:37;;;;;;;16.38;6.97;;;;;;;12.77;60.91;98515.28;5093660;28;20023;-74
2023/04/14 07:04:03;;;;;;;10.80;7.40;;;;;;;12.66;61.73;98511.47;5111488;28;20031;-76
2023/04/14 07:06:28;;;;;;;13.90;6.57;;;;;;;12.81;61.82;98509.72;5094944;27;20510;-76
2023/04/14 07:08:55;;;;;;;18.80;7.38;;;;;;;12.86;60.74;98512.22;5099326;28;20494;-74
2023/04/14 07:11:20;;;;;;;15.52;7.82;;;;;;;12.88;60.22;98493.00;5109189;28;20051;-78
2023/04/14 07:13:46;;;;;;;13.05;7.72;;;;;;;12.87;59.97;98482.97;5084950;28;20032;-71
2023/04/14 07:16:11;;;;;;;11.77;8.40;;;;;;;12.97;60.86;98484.31;5103457;27;20482;-73
2023/04/14 07:18:37;;;;;;;17.27;8.32;;;;;;;13.03;60.57;98482.84;5084549;28;20478;-74
2023/04/14 07:21:02;;;;;;;15.68;10.57;;;;;;;12.95;59.60;98493.13;5106391;28;20091;-74
2023/04/14 07:23:28;;;;;;;10.25;7.30;;;;;;;12.88;60.23;98481.78;5101635;27;20024;-74
2023/04/14 07:25:58;;;;;;;9.57;6.50;;;;;;;12.72;61.26;98487.50;5083210;28;20081;-73
2023/04/14 07:28:25;;;;;;;9.95;7.30;;;;;;;12.86;60.76;98484.97;5109405;28;20114;-76
2023/04/14 07:30:52;;;;;;;15.80;6.82;;;;;;;12.62;62.21;98478.56;5104308;27;20070;-74
2023/04/14 07:33:18;;;;;;;15.20;7.07;;;;;;;12.69;61.92;98496.69;5110916;28;20176;-73
2023/04/14 07:35:51;;;;;;;12.23;8.27;;;;;;;12.72;62.16;98499.56;5110317;27;20022;-72
2023/04/14 07:38:17;;;;;;;11.25;7.63;;;;;;;12.90;62.03;98476.59;5092640;28;20117;-71
2023/04/14 07:40:43;;;;;;;11.30;6.72;;;;;;;13.07;61.88;98469.66;5101237;28;20031;-70
2023/04/14 07:43:08;;;;;;;15.75;7.93;;;;;;;13.02;62.04;98462.38;5099023;28;20489;-77
2023/04/14 07:45:34;;;;;;;17.05;8.48;;;;;;;13.11;62.29;98461.31;5098073;28;20503;-78
2023/04/14 07:48:00;;;;;;;12.98;8.82;;;;;;;13.19;62.71;98449.81;5093070;28;20039;-73
2023/04/14 07:50:25;;;;;;;10.35;7.60;;;;;;;13.11;62.52;98452.88;5110876;28;20051;-72
2023/04/14 07:52:51;;;;;;;17.98;7.78;;;;;;;13.02;63.25;98431.50;5095083;28;20501;-73
2023/04/14 07:55:17;;;;;;;14.90;8.13;;;;;;;13.00;63.37;98442.28;5081073;28;20126;-73
2023/04/14 07:57:42;;;;;;;14.05;8.23;;;;;;;13.17;63.20;98448.56;5075588;28;20030;-74
2023/04/14 08:00:08;;;;;;;13.45;8.38;;;;;;;13.25;63.22;98447.47;5090146;28;20128;-74
2023/04/14 08:02:34;;;;;;;12.68;8.45;;;;;;;13.29;61.75;98453.16;5097242;28;20113;-73
2023/04/14 08:05:00;;;;;;;20.00;8.85;;;;;;;13.32;62.03;98463.63;5099379;27;20055;-76
2023/04/14 08:07:27;;;;;;;17.45;7.78;;;;;;;13.43;62.10;98455.38;5101451;28;20036;-74
2023/04/14 08:09:53;;;;;;;17.88;9.38;;;;;;;13.48;60.81;98469.09;5081260;28;20421;-74
2023/04/14 08:12:18;;;;;;;13.82;8.63;;;;;;;13.72;59.74;98465.03;5098862;28;20056;-74
2023/04/14 08:14:46;;;;;;;14.10;8.25;;;;;;;13.74;60.10;98459.84;5078767;28;20096;-78
2023/04/14 08:17:12;;;;;;;11.30;8.45;;;;;;;13.63;60.75;98456.06;5081085;28;20024;-73
2023/04/14 08:19:37;;;;;;;13.02;7.50;;;;;;;13.85;60.26;98462.78;5105829;28;20028;-75
2023/04/14 08:22:03;;;;;;;13.60;8.27;;;;;;;14.09;59.28;98466.28;5107331;28;20076;-74
2023/04/14 08:24:28;;;;;;;12.50;7.78;;;;;;;13.97;59.06;98444.06;5109344;28;20031;-73
2023/04/14 08:26:54;;;;;;;21.35;8.75;;;;;;;13.92;58.84;98438.78;5110283;28;20027;-76
2023/04/14 08:29:20;;;;;;;11.38;8.48;;;;;;;14.24;58.58;98450.41;5106443;28;20031;-72
2023/04/14 08:31:45;;;;;;;13.82;8.05;;;;;;;14.40;58.75;98416.41;5105006;28;20080;-73
2023/04/14 08:34:11;;;;;;;12.48;8.45;;;;;;;14.70;58.28;98414.69;5108586;28;20065;-73
2023/04/14 08:36:36;;;;;;;13.40;7.70;;;;;;;15.23;57.55;98416.31;5110648;28;20019;-73
2023/04/14 08:39:03;;;;;;;14.57;7.10;;;;;;;15.65;56.65;98407.69;5108592;28;20032;-73
2023/04/14 08:41:32;;;;;;;17.48;9.02;;;;;;;15.95;55.88;98417.91;5106713;28;20027;-76
2023/04/14 08:44:00;;;;;;;19.75;8.43;;;;;;;16.24;55.11;98424.44;5108613;28;20052;-74
2023/04/14 08:46:26;;;;;;;16.75;7.22;;;;;;;16.35;53.37;98444.22;5092604;28;20031;-73
2023/04/14 08:48:59;;;;;;;19.80;7.47;;;;;;;16.13;53.08;98429.25;5106155;28;20030;-74
2023/04/14 08:51:34;;;;;;;18.52;8.40;;;;;;;15.81;55.48;98422.25;5101780;28;20035;-73
2023/04/14 08:54:03;;;;;;;37.95;9.52;;;;;;;15.43;56.53;98416.00;5081521;28;20031;-73
2023/04/14 08:56:32;;;;;;;21.02;9.27;;;;;;;15.25;57.45;98422.34;5091084;28;20103;-74
2023/04/14 08:59:00;;;;;;;17.47;8.97;;;;;;;15.52;57.26;98424.13;5097766;28;20156;-76
2023/04/14 09:01:28;;;;;;;12.98;7.18;;;;;;;15.53;55.81;98432.19;5094767;28;20441;-73
2023/04/14 09:03:56;;;;;;;13.43;7.95;;;;;;;15.49;57.20;98425.72;5102396;28;20430;-73
2023/04/14 09:06:22;;;;;;;16.88;8.15;;;;;;;15.88;56.82;98421.47;5090268;28;20035;-74
2023/04/14 09:08:48;;;;;;;25.33;8.77;;;;;;;16.10;56.28;98382.91;5101707;28;20023;-77
2023/04/14 09:11:15;;;;;;;18.67;7.88;;;;;;;16.44;56.27;98392.25;5091443;28;20498;-74
2023/04/14 09:13:42;;;;;;;10.00;7.88;;;;;;;16.38;56.41;98366.44;5101914;28;20031;-74
2023/04/14 09:16:10;;;;;;;16.17;8.73;;;;;;;16.64;55.79;98370.88;5114958;28;20019;-72
2023/04/14 09:18:35;;;;;;;15.43;8.88;;;;;;;16.68;55.64;98363.22;5103122;27;20023;-74
2023/04/14 09:21:01;;;;;;;14.95;7.53;;;;;;;17.25;55.51;98372.88;5107353;28;20627;-76
2023/04/14 09:23:27;;;;;;;12.02;8.63;;;;;;;17.32;54.39;98376.88;5092337;28;20034;-75
2023/04/14 09:25:54;;;;;;;10.02;7.30;;;;;;;17.26;54.02;98356.69;5096381;28;20038;-75
2023/04/14 09:28:20;;;;;;;10.43;7.28;;;;;;;17.30;54.77;98349.00;5091451;28;20024;-73
2023/04/14 09:30:45;;;;;;;13.48;7.38;;;;;;;17.48;54.60;98356.66;5089121;28;20122;-74
2023/04/14 09:33:21;;;;;;;14.95;8.02;;;;;;;17.40;55.02;98364.34;5097283;28;20054;-74
2023/04/14 09:35:49;;;;;;;15.30;7.93;;;;;;;17.42;55.70;98346.97;5091101;28;20379;-73
2023/04/14 09:38:33;;;;;;;15.05;8.10;;;;;;;17.71;54.81;98342.00;5091192;28;20129;-75
2023/04/14 09:41:00;;;;;;;17.45;8.57;;;;;;;17.92;55.17;98317.66;5080808;28;20032;-72
2023/04/14 09:43:28;;;;;;;15.80;8.05;;;;;;;18.15;55.41;98308.63;5092930;27;20035;-71
2023/04/14 09:45:54;;;;;;;13.30;8.80;;;;;;;18.15;54.82;98293.69;5099495;27;20751;-74
2023/04/14 09:48:20;;;;;;;19.83;8.65;;;;;;;18.10;54.95;98273.13;5097205;27;20024;-72
2023/04/14 09:51:08;;;;;;;19.73;8.57;;;;;;;18.44;55.34;98279.31;5094982;27;20031;-71
2023/04/14 09:53:41;;;;;;;15.00;8.15;;;;;;;18.36;55.31;98270.91;5072661;28;20044;-71
2023/04/14 09:56:11;;;;;;;15.48;9.35;;;;;;;18.41;55.81;98291.47;5098364;27;20508;-72
2023/04/14 09:58:38;;;;;;;19.80;8.77;;;;;;;18.36;55.98;98302.03;5085666;28;20420;-71
2023/04/14 10:01:11;;;;;;;12.00;9.02;;;;;;;18.62;55.94;98313.94;5087303;27;20469;-71
2023/04/14 10:03:42;;;;;;;13.75;8.80;;;;;;;18.73;55.10;98313.03;5094000;27;20115;-71
2023/04/14 10:06:18;;;;;;;16.50;8.48;;;;;;;18.86;55.19;98304.81;5086334;28;20027;-68
2023/04/14 10:08:47;;;;;;;11.82;8.20;;;;;;;19.01;55.12;98314.81;5089437;28;20032;-72
2023/04/14 10:11:18;;;;;;;13.25;8.40;;;;;;;19.12;54.61;98314.69;5085900;28;20526;-72
2023/04/14 10:13:48;;;;;;;15.10;7.90;;;;;;;19.46;54.13;98313.91;5092264;28;20062;-72
2023/04/14 10:16:14;;;;;;;10.75;7.00;;;;;;;19.83;53.19;98319.91;5090326;28;20050;-76
2023/04/14 10:18:40;;;;;;;15.50;6.93;;;;;;;19.97;51.39;98340.81;5073695;28;20024;-72
2023/04/14 10:21:07;;;;;;;10.18;7.15;;;;;;;20.01;51.19;98341.59;5097596;28;20023;-76
2023/04/14 10:23:34;;;;;;;13.75;8.13;;;;;;;20.05;52.59;98331.81;5083798;28;20468;-73
2023/04/14 10:26:01;;;;;;;12.50;7.30;;;;;;;20.08;51.86;98335.00;5103580;28;20036;-73
2023/04/14 10:28:30;;;;;;;13.18;7.03;;;;;;;20.32;51.35;98311.13;5086960;28;20036;-73
2023/04/14 10:30:57;;;;;;;11.85;6.93;;;;;;;20.56;50.32;98316.00;5104138;28;20055;-73
2023/04/14 10:33:23;;;;;;;16.08;7.53;;;;;;;20.76;50.66;98299.03;5096047;28;20085;-73
2023/04/14 10:35:55;;;;;;;13.05;8.07;;;;;;;20.77;51.45;98304.28;5109212;28;20023;-72
2023/04/14 10:38:21;;;;;;;15.93;7.55;;;;;;;20.88;49.74;98289.09;5103264;28;20158;-75
2023/04/14 10:40:50;;;;;;;13.20;6.78;;;;;;;21.08;50.99;98305.41;5100998;28;20538;-77
2023/04/14 10:43:15;;;;;;;11.60;6.40;;;;;;;21.31;48.18;98318.75;5084645;28;20032;-74
2023/04/14 10:45:57;;;;;;;10.70;6.13;;;;;;;21.13;46.88;98328.44;5095517;28;20032;-72
2023/04/14 10:48:31;;;;;;;12.38;6.75;;;;;;;21.02;49.87;98328.63;5095462;28;20422;-75
2023/04/14 10:51:09;;;;;;;10.35;6.65;;;;;;;20.94;49.40;98317.84;5105174;28;20521;-73
2023/04/14 10:53:47;;;;;;;17.33;6.63;;;;;;;21.09;47.98;98315.53;5094620;28;20092;-74
2023/04/14 10:56:13;;;;;;;10.93;7.22;;;;;;;21.14;48.32;98315.00;5089764;28;20035;-75
2023/04/14 10:58:39;;;;;;;10.57;7.38;;;;;;;21.41;47.18;98314.06;5092503;28;20107;-78
2023/04/14 11:01:24;;;;;;;8.23;6.20;;;;;;;21.22;47.89;98298.63;5116023;28;20909;-78
2023/04/14 11:03:50;;;;;;;13.68;6.45;;;;;;;21.41;46.48;98297.84;5085309;28;20123;-77
2023/04/14 11:06:44;;;;;;;11.55;6.10;;;;;;;21.45;46.08;98303.44;5081720;28;20049;-77
2023/04/14 11:09:30;;;;;;;14.60;6.50;;;;;;;21.43;46.12;98315.25;5119894;28;20042;-78
2023/04/14 11:12:04;;;;;;;11.15;6.05;;;;;;;21.49;45.24;98301.31;5114422;27;20058;-77
2023/04/14 11:14:31;;;;;;;10.93;5.32;;;;;;;21.52;45.83;98311.81;5099848;28;20110;-78
2023/04/14 11:17:04;;;;;;;11.10;5.65;;;;;;;21.50;44.95;98302.94;5102788;28;20043;-77
2023/04/14 11:19:31;;;;;;;9.00;5.75;;;;;;;21.48;44.87;98316.78;5099148;28;20297;-77
2023/04/14 11:21:56;;;;;;;13.10;6.00;;;;;;;21.60;44.92;98299.06;5108347;28;20024;-75
2023/04/14 11:24:23;;;;;;;15.82;5.75;;;;;;;21.66;44.79;98292.84;5106710;28;20034;-77
2023/04/14 11:26:56;;;;;;;8.95;6.30;;;;;;;21.59;45.26;98286.06;5099272;28;20588;-77
2023/04/14 11:29:21;;;;;;;19.85;6.32;;;;;;;21.59;45.16;98279.56;5090789;28;20482;-74